Time;durP1;ratioP1;P1;durP2;ratioP2;P2;SDS_P1;SDS_P2;PMS_P1;PMS_P2;Temp;Humidity;BMP_temperature;BMP_pressure;BME280_temperature;BME280_humidity;BME280_pressure;Samples;Min_cycle;Max_cycle;Signal;HPM_P1;HPM_P2
2022/09/13 00:00:40;;;;;;;11.45;10.25;;;24.50;1.00;;;;;;5031941;28;20483;-62
2022/09/13 00:03:06;;;;;;;10.70;9.52;;;24.50;1.00;;;;;;5029199;28;20026;-61
2022/09/13 00:05:32;;;;;;;12.10;8.98;;;24.50;1.00;;;;;;5031682;28;20486;-62
2022/09/13 00:07:58;;;;;;;11.05;8.95;;;24.40;1.00;;;;;;5030896;28;20064;-61
2022/09/13 00:10:25;;;;;;;10.30;8.45;;;24.40;1.00;;;;;;5018510;28;20057;-61
2022/09/13 00:12:51;;;;;;;11.48;8.68;;;24.50;1.00;;;;;;5032055;28;20159;-61
2022/09/13 00:15:17;;;;;;;8.80;7.93;;;24.40;1.00;;;;;;5032171;28;20237;-61
2022/09/13 00:17:43;;;;;;;11.52;9.27;;;24.50;1.00;;;;;;5032119;28;20033;-62
2022/09/13 00:20:09;;;;;;;14.23;8.98;;;24.50;1.00;;;;;;5033837;28;20049;-62
2022/09/13 00:22:35;;;;;;;14.25;8.65;;;24.40;1.00;;;;;;5027879;28;20056;-62
2022/09/13 00:25:02;;;;;;;10.35;8.00;;;24.40;1.00;;;;;;5028514;28;20143;-62
2022/09/13 00:27:28;;;;;;;8.77;7.55;;;24.40;1.00;;;;;;5030513;28;20021;-62
2022/09/13 00:29:54;;;;;;;8.98;8.00;;;24.40;1.00;;;;;;5030526;28;20403;-62
2022/09/13 00:32:19;;;;;;;9.13;7.43;;;24.40;1.00;;;;;;5025571;28;20029;-62
2022/09/13 00:34:45;;;;;;;11.68;7.82;;;24.30;1.00;;;;;;5038766;28;20140;-62
2022/09/13 00:37:11;;;;;;;8.35;7.50;;;24.30;1.00;;;;;;5031722;28;20028;-62
2022/09/13 00:39:36;;;;;;;11.63;7.22;;;24.30;1.00;;;;;;5039416;28;20522;-62
2022/09/13 00:42:02;;;;;;;10.35;7.25;;;24.30;1.00;;;;;;5031821;28;20141;-62
2022/09/13 00:44:54;;;;;;;7.80;6.57;;;24.30;1.00;;;;;;5038405;28;20054;-62
2022/09/13 00:47:55;;;;;;;9.93;7.40;;;24.30;1.00;;;;;;5031813;28;20480;-62
2022/09/13 00:50:29;;;;;;;8.35;7.47;;;24.30;1.00;;;;;;5035367;28;20035;-62
2022/09/13 00:53:03;;;;;;;9.68;7.40;;;24.20;1.00;;;;;;5031687;28;20026;-62
2022/09/13 00:55:54;;;;;;;10.48;7.28;;;24.10;1.00;;;;;;5039508;28;20029;-62
2022/09/13 00:58:28;;;;;;;8.43;6.78;;;24.20;1.00;;;;;;5030724;28;20060;-62
2022/09/13 01:00:56;;;;;;;7.93;6.20;;;24.20;1.00;;;;;;5043598;28;20044;-62
2022/09/13 01:03:26;;;;;;;7.60;6.35;;;24.10;1.00;;;;;;5032705;28;20019;-62
2022/09/13 01:06:00;;;;;;;9.38;6.75;;;24.10;1.00;;;;;;5028613;28;20084;-61
2022/09/13 01:08:30;;;;;;;11.43;6.63;;;24.10;1.00;;;;;;5033356;28;20534;-63
2022/09/13 01:10:58;;;;;;;8.40;7.10;;;24.10;1.00;;;;;;5030435;28;20399;-62
2022/09/13 01:13:30;;;;;;;7.28;6.18;;;24.10;1.00;;;;;;5033998;28;20189;-62
2022/09/13 01:15:59;;;;;;;7.25;6.05;;;24.10;1.00;;;;;;5035548;28;20179;-62
2022/09/13 01:18:25;;;;;;;9.18;6.10;;;24.10;1.00;;;;;;5035385;28;20030;-63
2022/09/13 01:21:24;;;;;;;7.22;6.30;;;24.10;1.00;;;;;;5047881;28;20087;-62
2022/09/13 01:23:49;;;;;;;9.18;5.85;;;24.00;1.00;;;;;;5025927;28;20034;-62
2022/09/13 01:26:33;;;;;;;8.02;6.28;;;24.00;1.00;;;;;;5034981;28;20416;-62
2022/09/13 01:29:26;;;;;;;10.27;6.10;;;24.00;1.00;;;;;;5042790;28;20361;-62
2022/09/13 01:32:43;;;;;;;10.38;6.30;;;24.00;1.00;;;;;;5034724;28;20079;-62
2022/09/13 01:35:22;;;;;;;6.43;5.68;;;24.00;1.00;;;;;;5023221;28;20061;-61
2022/09/13 01:37:53;;;;;;;8.18;5.60;;;24.00;1.00;;;;;;5021193;28;20024;-62
2022/09/13 01:40:27;;;;;;;11.30;6.25;;;24.00;1.00;;;;;;5042576;28;20041;-62
2022/09/13 01:43:25;;;;;;;7.18;5.72;;;24.00;1.00;;;;;;5027492;28;20525;-62
2022/09/13 01:46:23;;;;;;;6.88;5.15;;;23.90;1.00;;;;;;5026937;28;20388;-63
2022/09/13 01:49:07;;;;;;;9.80;5.40;;;23.80;1.00;;;;;;5034961;28;20057;-62
2022/09/13 01:51:42;;;;;;;8.53;5.87;;;23.90;1.00;;;;;;5030513;28;20124;-61
2022/09/13 01:54:30;;;;;;;7.60;5.65;;;23.90;1.00;;;;;;5037990;28;20459;-63
2022/09/13 01:57:01;;;;;;;8.77;6.00;;;23.90;1.00;;;;;;5034084;28;20424;-62
2022/09/13 01:59:59;;;;;;;6.68;5.43;;;23.80;1.00;;;;;;5033702;28;20048;-62
2022/09/13 02:02:50;;;;;;;8.98;5.57;;;23.80;1.00;;;;;;5018838;28;20034;-62
2022/09/13 02:05:16;;;;;;;7.00;5.70;;;23.80;1.00;;;;;;5026393;28;20034;-62
2022/09/13 02:07:44;;;;;;;6.80;5.72;;;23.80;1.00;;;;;;5022126;28;20021;-62
2022/09/13 02:10:29;;;;;;;7.75;6.60;;;23.80;1.00;;;;;;5034051;28;20032;-62
2022/09/13 02:12:57;;;;;;;10.10;6.55;;;23.80;1.00;;;;;;5034104;28;20026;-63
2022/09/13 02:15:28;;;;;;;8.02;5.97;;;23.80;1.00;;;;;;5034153;28;20052;-62
2022/09/13 02:18:05;;;;;;;9.98;6.15;;;23.80;1.00;;;;;;5020417;28;20030;-62
2022/09/13 02:20:35;;;;;;;8.43;6.57;;;23.80;1.00;;;;;;5034269;28;20039;-62
2022/09/13 02:23:10;;;;;;;7.53;5.85;;;23.80;1.00;;;;;;5033844;28;20033;-62
2022/09/13 02:25:38;;;;;;;11.10;5.80;;;23.70;1.00;;;;;;5034066;28;20034;-63
2022/09/13 02:28:08;;;;;;;7.30;5.63;;;23.70;1.00;;;;;;5033767;28;20049;-63
2022/09/13 02:30:39;;;;;;;8.75;5.53;;;23.70;1.00;;;;;;5033532;28;20483;-63
2022/09/13 02:33:11;;;;;;;7.68;5.45;;;23.70;1.00;;;;;;5032928;28;20147;-63
2022/09/13 02:35:52;;;;;;;7.70;5.05;;;23.70;1.00;;;;;;5033706;28;20030;-63
2022/09/13 02:38:32;;;;;;;8.55;5.85;;;23.60;1.00;;;;;;5033819;28;20479;-62
2022/09/13 02:41:06;;;;;;;8.45;5.45;;;23.70;1.00;;;;;;5033599;28;20025;-62
2022/09/13 02:43:41;;;;;;;6.35;5.43;;;23.70;1.00;;;;;;5032621;28;20029;-63
2022/09/13 02:46:07;;;;;;;6.95;6.18;;;23.60;1.00;;;;;;5033521;28;20013;-63
2022/09/13 02:48:57;;;;;;;7.88;5.63;;;23.60;1.00;;;;;;5033429;28;20028;-63
2022/09/13 02:51:32;;;;;;;7.32;5.43;;;23.60;1.00;;;;;;5022152;28;20025;-62
2022/09/13 02:54:09;;;;;;;7.25;5.45;;;23.60;1.00;;;;;;5033266;28;20034;-62
2022/09/13 02:56:58;;;;;;;6.90;5.60;;;23.50;1.00;;;;;;5033518;28;20045;-62
2022/09/13 02:59:24;;;;;;;11.15;6.15;;;23.50;1.00;;;;;;5033218;28;20025;-62
2022/09/13 03:02:00;;;;;;;7.10;5.60;;;23.60;1.00;;;;;;5033186;28;20018;-62
2022/09/13 03:04:27;;;;;;;7.60;5.63;;;23.60;1.00;;;;;;5033010;28;20093;-63
2022/09/13 03:06:53;;;;;;;6.18;5.57;;;23.50;1.00;;;;;;5031625;28;20395;-62
2022/09/13 03:09:19;;;;;;;6.90;5.30;;;23.50;1.00;;;;;;5033002;28;20148;-62
2022/09/13 03:12:18;;;;;;;8.25;6.13;;;23.50;1.00;;;;;;5033034;28;20021;-62
2022/09/13 03:14:58;;;;;;;8.15;5.70;;;23.50;1.00;;;;;;5032791;28;20049;-63
2022/09/13 03:18:02;;;;;;;8.32;5.60;;;23.50;1.00;;;;;;5029651;28;20061;-62
2022/09/13 03:20:51;;;;;;;6.90;4.85;;;23.50;1.00;;;;;;5018788;28;20041;-61
2022/09/13 03:23:36;;;;;;;5.40;4.90;;;23.40;1.00;;;;;;5028598;28;20029;-61
2022/09/13 03:26:24;;;;;;;6.25;5.05;;;23.50;1.00;;;;;;5032106;28;20041;-61
2022/09/13 03:29:06;;;;;;;10.00;5.97;;;23.40;1.00;;;;;;5032662;28;20112;-61
2022/09/13 03:31:43;;;;;;;11.55;6.40;;;23.40;1.00;;;;;;5032220;28;20029;-61
2022/09/13 03:34:36;;;;;;;8.32;5.93;;;23.40;1.00;;;;;;5019315;28;20079;-60
2022/09/13 03:37:22;;;;;;;7.35;5.70;;;23.40;1.00;;;;;;5030903;28;20352;-59
2022/09/13 03:39:54;;;;;;;9.15;5.88;;;23.40;1.00;;;;;;5034576;28;20032;-62
2022/09/13 03:42:38;;;;;;;8.60;5.60;;;23.40;1.00;;;;;;5025572;28;20133;-62
2022/09/13 03:45:07;;;;;;;6.43;5.43;;;23.40;1.00;;;;;;5023470;28;20511;-62
2022/09/13 03:47:35;;;;;;;8.50;5.70;;;23.40;1.00;;;;;;5031389;28;20383;-62
2022/09/13 03:50:03;;;;;;;6.53;5.93;;;23.40;1.00;;;;;;5032331;28;20037;-63
2022/09/13 03:52:29;;;;;;;8.98;6.45;;;23.40;1.00;;;;;;5044508;28;20486;-62
2022/09/13 03:54:56;;;;;;;7.55;5.32;;;23.40;1.00;;;;;;5032395;28;20053;-62
2022/09/13 03:57:22;;;;;;;8.05;6.18;;;23.30;1.00;;;;;;5044968;28;20025;-62
2022/09/13 03:59:55;;;;;;;7.60;5.95;;;23.30;1.00;;;;;;5032553;28;20117;-62
2022/09/13 04:02:24;;;;;;;6.85;5.85;;;23.30;1.00;;;;;;5031025;28;20034;-62
2022/09/13 04:04:49;;;;;;;7.72;5.75;;;23.30;1.00;;;;;;5031409;28;20075;-62
2022/09/13 04:07:19;;;;;;;10.32;6.13;;;23.30;1.00;;;;;;5029199;28;20467;-62
2022/09/13 04:09:45;;;;;;;7.95;6.35;;;23.30;1.00;;;;;;5042552;28;20025;-63
2022/09/13 04:12:13;;;;;;;8.18;5.85;;;23.30;1.00;;;;;;5036580;28;20175;-62
2022/09/13 04:14:39;;;;;;;13.65;6.68;;;23.30;1.00;;;;;;5036055;28;20091;-62
2022/09/13 04:17:04;;;;;;;11.27;6.63;;;23.20;1.00;;;;;;5036499;28;20079;-62
2022/09/13 04:19:30;;;;;;;8.05;7.25;;;23.20;1.00;;;;;;5035924;28;20491;-62
2022/09/13 04:21:56;;;;;;;9.02;7.38;;;23.20;1.00;;;;;;5030803;28;20030;-62
2022/09/13 04:24:25;;;;;;;8.98;6.50;;;23.20;1.00;;;;;;5041266;28;20064;-61
2022/09/13 04:26:53;;;;;;;8.02;7.13;;;23.20;1.00;;;;;;5034956;28;20025;-62
2022/09/13 04:29:20;;;;;;;10.32;7.00;;;23.20;1.00;;;;;;5031124;28;20025;-62
2022/09/13 04:31:46;;;;;;;11.35;6.90;;;23.10;1.00;;;;;;5044687;28;20029;-62
2022/09/13 04:34:12;;;;;;;12.98;8.10;;;23.10;1.00;;;;;;5030931;28;20032;-62
2022/09/13 04:36:38;;;;;;;13.30;8.32;;;23.10;1.00;;;;;;5032014;28;20475;-62
2022/09/13 04:39:04;;;;;;;9.48;7.35;;;23.10;1.00;;;;;;5030960;28;20025;-62
2022/09/13 04:41:33;;;;;;;13.90;9.20;;;23.10;1.00;;;;;;5031020;28;20501;-62
2022/09/13 04:44:02;;;;;;;9.45;8.50;;;23.10;1.00;;;;;;5040924;28;20049;-63
2022/09/13 04:46:28;;;;;;;11.82;8.77;;;23.10;1.00;;;;;;5033037;28;20492;-63
2022/09/13 04:48:54;;;;;;;11.80;8.60;;;23.10;1.00;;;;;;5034657;28;20021;-61
2022/09/13 04:51:23;;;;;;;12.90;8.35;;;23.10;1.00;;;;;;5035762;28;20025;-62
2022/09/13 04:53:54;;;;;;;10.07;8.43;;;23.00;1.00;;;;;;5036124;28;20036;-62
2022/09/13 04:56:20;;;;;;;10.13;8.45;;;22.90;1.00;;;;;;5035435;28;20033;-61
2022/09/13 04:58:46;;;;;;;10.55;8.35;;;23.00;1.00;;;;;;5034497;28;20052;-61
2022/09/13 05:01:11;;;;;;;10.68;8.93;;;23.00;1.00;;;;;;5035471;28;20045;-63
2022/09/13 05:03:37;;;;;;;8.85;7.65;;;23.00;1.00;;;;;;5045620;28;20032;-62
2022/09/13 05:06:11;;;;;;;12.93;8.55;;;23.00;1.00;;;;;;5036107;28;20094;-62
2022/09/13 05:08:38;;;;;;;10.27;7.82;;;22.90;1.00;;;;;;5027586;28;20053;-62
2022/09/13 05:11:05;;;;;;;12.02;8.82;;;22.90;1.00;;;;;;5023778;28;20041;-62
2022/09/13 05:13:31;;;;;;;10.27;7.75;;;22.80;1.00;;;;;;5038952;28;20038;-62
2022/09/13 05:15:59;;;;;;;13.02;8.60;;;22.90;1.00;;;;;;5035138;28;20038;-62
2022/09/13 05:18:26;;;;;;;14.23;8.40;;;22.90;1.00;;;;;;5040575;28;20022;-62
2022/09/13 05:20:56;;;;;;;12.50;9.30;;;22.90;1.00;;;;;;5033758;28;20052;-62
2022/09/13 05:23:23;;;;;;;13.63;10.25;;;22.80;1.00;;;;;;5038517;28;20021;-62
2022/09/13 05:25:58;;;;;;;14.90;9.40;;;22.90;1.00;;;;;;5033772;28;20028;-62
2022/09/13 05:28:25;;;;;;;13.45;8.55;;;22.90;1.00;;;;;;5041158;28;20025;-62
2022/09/13 05:31:11;;;;;;;10.93;9.00;;;22.90;1.00;;;;;;5039646;28;20030;-62
2022/09/13 05:33:37;;;;;;;15.25;9.65;;;22.90;1.00;;;;;;5033744;28;20088;-62
2022/09/13 05:36:06;;;;;;;15.10;10.73;;;22.90;1.00;;;;;;5030764;28;20014;-63
2022/09/13 05:38:32;;;;;;;12.30;9.00;;;22.90;1.00;;;;;;5029262;28;20120;-63
2022/09/13 05:41:00;;;;;;;13.90;9.10;;;22.90;1.00;;;;;;5037994;28;20120;-63
2022/09/13 05:43:29;;;;;;;14.30;10.15;;;22.80;1.00;;;;;;5042944;28;20037;-63
2022/09/13 05:46:04;;;;;;;12.88;9.30;;;22.80;1.00;;;;;;5020899;28;20483;-61
2022/09/13 05:48:30;;;;;;;10.07;8.52;;;22.80;1.00;;;;;;5033655;28;20044;-62
2022/09/13 05:51:02;;;;;;;13.55;10.48;;;22.80;1.00;;;;;;5034494;28;20039;-63
2022/09/13 05:53:28;;;;;;;13.30;9.27;;;22.90;1.00;;;;;;5041696;28;20398;-63
2022/09/13 05:55:53;;;;;;;15.15;9.80;;;22.80;1.00;;;;;;5035968;28;20471;-63
2022/09/13 05:58:19;;;;;;;12.82;8.80;;;22.80;1.00;;;;;;5032969;28;20120;-63
2022/09/13 06:00:44;;;;;;;13.43;9.32;;;22.90;1.00;;;;;;5034279;28;20038;-63
2022/09/13 06:03:10;;;;;;;13.50;9.73;;;22.80;1.00;;;;;;5033542;28;20057;-62
2022/09/13 06:05:35;;;;;;;9.85;8.82;;;22.90;1.00;;;;;;5034295;28;20021;-62
2022/09/13 06:08:01;;;;;;;15.00;10.35;;;22.90;1.00;;;;;;5030354;28;20034;-62
2022/09/13 06:10:27;;;;;;;12.43;8.68;;;22.90;1.00;;;;;;5034044;28;20026;-62
2022/09/13 06:12:53;;;;;;;13.35;9.98;;;22.90;1.00;;;;;;5036121;28;20100;-63
2022/09/13 06:15:18;;;;;;;16.80;9.93;;;22.90;1.00;;;;;;5033974;28;20063;-62
2022/09/13 06:17:45;;;;;;;10.60;8.25;;;22.90;1.00;;;;;;5032337;28;20105;-62
2022/09/13 06:20:10;;;;;;;13.60;8.40;;;22.80;1.00;;;;;;5033812;28;20033;-61
2022/09/13 06:22:36;;;;;;;14.77;8.90;;;22.80;1.00;;;;;;5033377;28;20139;-62
2022/09/13 06:25:02;;;;;;;12.15;8.80;;;22.90;1.00;;;;;;5037682;28;20099;-62
2022/09/13 06:27:29;;;;;;;11.55;8.93;;;22.90;1.00;;;;;;5033642;28;20022;-61
2022/09/13 06:29:54;;;;;;;10.68;8.40;;;22.80;1.00;;;;;;5049045;28;20034;-61
2022/09/13 06:32:20;;;;;;;11.65;7.85;;;22.90;1.00;;;;;;5033520;28;20356;-61
2022/09/13 06:34:47;;;;;;;15.00;7.10;;;22.80;1.00;;;;;;5032832;28;20108;-62
2022/09/13 06:37:12;;;;;;;8.85;7.90;;;22.90;1.00;;;;;;5033597;28;20014;-61
2022/09/13 06:39:38;;;;;;;8.15;7.38;;;23.00;1.00;;;;;;5032900;28;20083;-61
2022/09/13 06:42:04;;;;;;;10.73;7.78;;;23.00;1.00;;;;;;5032386;28;20083;-62
2022/09/13 06:44:30;;;;;;;10.27;7.47;;;22.90;1.00;;;;;;5030355;28;20026;-61
2022/09/13 06:46:55;;;;;;;12.48;8.38;;;22.90;1.00;;;;;;5032745;28;20029;-61
2022/09/13 06:49:21;;;;;;;13.38;8.25;;;22.90;1.00;;;;;;5032746;28;20528;-61
2022/09/13 06:51:46;;;;;;;13.10;7.93;;;23.00;1.00;;;;;;5033302;28;20044;-62
2022/09/13 06:54:12;;;;;;;11.27;7.97;;;23.00;1.00;;;;;;5035855;28;20034;-62
2022/09/13 06:56:38;;;;;;;10.75;7.95;;;23.00;1.00;;;;;;5033186;28;20147;-61
2022/09/13 06:59:06;;;;;;;11.55;7.03;;;22.90;1.00;;;;;;5036660;28;20033;-61
2022/09/13 07:01:38;;;;;;;9.40;7.72;;;23.00;1.00;;;;;;5038601;28;20073;-62
2022/09/13 07:04:06;;;;;;;12.32;7.95;;;23.00;1.00;;;;;;5038392;28;20025;-62
2022/09/13 07:06:37;;;;;;;10.02;7.55;;;23.00;1.00;;;;;;5035490;28;20017;-62
2022/09/13 07:09:05;;;;;;;14.55;8.02;;;23.10;1.00;;;;;;5039167;28;20087;-62
2022/09/13 07:11:36;;;;;;;10.90;8.20;;;23.10;1.00;;;;;;5025394;28;20486;-62
2022/09/13 07:14:03;;;;;;;10.48;7.65;;;23.10;1.00;;;;;;5032487;28;20125;-62
2022/09/13 07:16:31;;;;;;;10.38;8.82;;;23.10;1.00;;;;;;5031432;28;20136;-62
2022/09/13 07:19:03;;;;;;;12.48;8.68;;;23.10;1.00;;;;;;5034836;28;20027;-61
2022/09/13 07:21:29;;;;;;;11.65;8.55;;;23.10;1.00;;;;;;5033009;28;20116;-62
2022/09/13 07:23:55;;;;;;;12.50;7.95;;;23.10;1.00;;;;;;5033837;28;20136;-62
2022/09/13 07:26:22;;;;;;;14.52;8.70;;;23.10;1.00;;;;;;5032734;28;20498;-62
2022/09/13 07:28:51;;;;;;;16.27;9.60;;;23.10;1.00;;;;;;5033010;28;20057;-62
2022/09/13 07:31:22;;;;;;;16.13;8.80;;;23.20;1.00;;;;;;5033534;28;20028;-62
2022/09/13 07:33:54;;;;;;;11.60;8.10;;;23.20;1.00;;;;;;5036311;28;20418;-62
2022/09/13 07:36:19;;;;;;;10.55;7.78;;;23.30;1.00;;;;;;5033872;28;20075;-61
2022/09/13 07:38:45;;;;;;;10.52;8.05;;;23.30;1.00;;;;;;5031443;28;20033;-61
2022/09/13 07:41:16;;;;;;;11.50;8.45;;;23.30;1.00;;;;;;5031387;28;20073;-62
2022/09/13 07:43:43;;;;;;;9.65;7.50;;;23.30;1.00;;;;;;5031943;28;20300;-62
2022/09/13 07:46:14;;;;;;;7.78;6.93;;;23.30;1.00;;;;;;5036840;28;20385;-62
2022/09/13 07:48:42;;;;;;;10.30;7.07;;;23.40;1.00;;;;;;5031371;28;20018;-62
2022/09/13 07:51:13;;;;;;;10.65;7.50;;;23.40;1.00;;;;;;5026877;28;20094;-62
2022/09/13 07:53:40;;;;;;;8.70;7.82;;;23.30;1.00;;;;;;5031831;28;20033;-62
2022/09/13 07:56:08;;;;;;;12.27;8.18;;;23.40;1.00;;;;;;5038104;28;20040;-62
2022/09/13 07:58:36;;;;;;;9.15;7.60;;;23.40;1.00;;;;;;5032187;28;20045;-62
2022/09/13 08:01:38;;;;;;;14.10;7.82;;;23.50;1.00;;;;;;5033733;28;20029;-62
2022/09/13 08:04:12;;;;;;;11.10;7.68;;;23.50;1.00;;;;;;5026589;28;20052;-62
2022/09/13 08:06:38;;;;;;;;;;;23.50;1.00;;;;;;5034139;28;20032;-62
2022/09/13 08:09:07;;;;;;;13.10;7.40;;;23.50;1.00;;;;;;5028961;28;19913;-62
2022/09/13 08:11:47;;;;;;;9.93;7.00;;;23.60;1.00;;;;;;5034760;28;20026;-62
2022/09/13 08:14:15;;;;;;;13.27;7.30;;;23.60;1.00;;;;;;5033995;28;20048;-61
2022/09/13 08:16:41;;;;;;;8.40;6.68;;;23.60;1.00;;;;;;5034400;28;20044;-62
2022/09/13 08:19:09;;;;;;;10.10;7.97;;;23.60;1.00;;;;;;5031720;28;20044;-62
2022/09/13 08:21:37;;;;;;;10.60;7.55;;;23.70;1.00;;;;;;5037383;28;20225;-63
2022/09/13 08:24:05;;;;;;;13.02;7.47;;;23.80;1.00;;;;;;5030670;28;20066;-62
2022/09/13 08:26:33;;;;;;;12.80;7.82;;;23.80;1.00;;;;;;5032844;28;20037;-62
2022/09/13 08:29:01;;;;;;;9.00;7.07;;;23.80;1.00;;;;;;5030520;28;20049;-64
2022/09/13 08:31:27;;;;;;;10.98;7.70;;;23.90;1.00;;;;;;5022822;28;20025;-63
2022/09/13 08:33:54;;;;;;;10.15;8.48;;;23.90;1.00;;;;;;5031793;28;20037;-63
2022/09/13 08:36:22;;;;;;;9.65;7.78;;;24.00;1.00;;;;;;5041141;28;20072;-63
2022/09/13 08:38:53;;;;;;;11.77;9.32;;;24.00;1.00;;;;;;5031851;28;20108;-63
2022/09/13 08:41:40;;;;;;;10.40;7.32;;;24.00;1.00;;;;;;5028732;28;20044;-63
2022/09/13 08:44:34;;;;;;;12.23;8.13;;;24.00;1.00;;;;;;5030724;28;20021;-64
2022/09/13 08:47:03;;;;;;;11.23;8.60;;;24.00;1.00;;;;;;5018964;28;20442;-63
2022/09/13 08:49:34;;;;;;;11.88;9.50;;;24.10;1.00;;;;;;5030529;28;20424;-63
2022/09/13 08:52:29;;;;;;;14.40;9.32;;;24.10;1.00;;;;;;5018037;28;20068;-63
2022/09/13 08:54:56;;;;;;;12.60;9.38;;;24.10;1.00;;;;;;5018360;28;20173;-62
2022/09/13 08:57:30;;;;;;;10.90;9.38;;;24.20;1.00;;;;;;5046868;28;20036;-63
2022/09/13 09:00:19;;;;;;;11.27;9.23;;;24.20;1.00;;;;;;5036903;28;20367;-62
2022/09/13 09:02:55;;;;;;;16.48;9.65;;;24.30;1.00;;;;;;5036115;28;20096;-63
2022/09/13 09:05:24;;;;;;;11.70;9.10;;;24.30;1.00;;;;;;5031579;28;20042;-63
2022/09/13 09:07:57;;;;;;;14.60;9.68;;;24.40;1.00;;;;;;5031495;28;20025;-63
2022/09/13 09:10:34;;;;;;;12.80;10.35;;;24.40;1.00;;;;;;5030794;28;20029;-62
2022/09/13 09:13:13;;;;;;;11.82;9.88;;;24.40;1.00;;;;;;5026297;28;20025;-63
2022/09/13 09:15:43;;;;;;;12.10;9.52;;;24.50;1.00;;;;;;5032699;28;20407;-63
2022/09/13 09:18:33;;;;;;;10.98;8.77;;;24.50;1.00;;;;;;5031730;28;20528;-62
2022/09/13 09:21:02;;;;;;;11.48;10.30;;;24.60;1.00;;;;;;5031480;28;20041;-62
2022/09/13 09:23:31;;;;;;;12.70;10.27;;;24.60;1.00;;;;;;5031416;28;20106;-63
2022/09/13 09:26:13;;;;;;;13.45;11.88;;;24.60;1.00;;;;;;5033849;28;20053;-62
2022/09/13 09:28:38;;;;;;;11.07;9.75;;;24.60;1.00;;;;;;5029858;28;20340;-62
2022/09/13 09:31:23;;;;;;;11.93;9.73;;;24.70;1.00;;;;;;5026156;28;20037;-62
2022/09/13 09:34:07;;;;;;;18.77;15.48;;;24.70;1.00;;;;;;5017380;28;20026;-62
2022/09/13 09:36:52;;;;;;;17.75;15.93;;;24.80;1.00;;;;;;5034037;28;20037;-63
2022/09/13 09:39:17;;;;;;;16.85;15.15;;;24.80;1.00;;;;;;5041151;28;20025;-62
2022/09/13 09:41:44;;;;;;;16.08;14.40;;;24.80;1.00;;;;;;5045200;28;20051;-63
2022/09/13 09:44:20;;;;;;;15.52;13.95;;;25.00;1.00;;;;;;5038089;28;20075;-62
2022/09/13 09:47:01;;;;;;;16.25;14.75;;;25.00;1.00;;;;;;5043896;28;20049;-62
2022/09/13 09:53:01;;;;;;;21.50;18.63;;;25.10;1.00;;;;;;5039227;28;20551;-62
2022/09/13 09:55:33;;;;;;;20.35;16.42;;;25.10;1.00;;;;;;5033684;28;20022;-62
2022/09/13 09:58:03;;;;;;;16.70;14.45;;;25.20;1.00;;;;;;5034515;28;20022;-62
2022/09/13 10:00:34;;;;;;;20.27;13.15;;;25.20;1.00;;;;;;5032558;28;20034;-62
2022/09/13 10:03:04;;;;;;;14.35;12.95;;;25.30;1.00;;;;;;5038318;28;20518;-62
2022/09/13 10:05:31;;;;;;;15.07;12.98;;;25.30;1.00;;;;;;5041864;28;20053;-63
2022/09/13 10:08:07;;;;;;;13.93;12.52;;;25.40;1.00;;;;;;5038118;28;20029;-63
2022/09/13 10:10:41;;;;;;;14.10;12.45;;;25.40;1.00;;;;;;5032244;28;20029;-62
2022/09/13 10:13:12;;;;;;;;;;;25.40;1.00;;;;;;5034224;28;20162;-62
2022/09/13 10:15:55;;;;;;;12.75;9.95;;;25.50;1.00;;;;;;5032063;28;20489;-62
2022/09/13 10:18:21;;;;;;;14.55;10.50;;;25.40;1.00;;;;;;5030163;28;20112;-62
2022/09/13 10:21:16;;;;;;;14.65;9.38;;;25.50;1.00;;;;;;5031348;28;20463;-63
2022/09/13 10:23:43;;;;;;;17.30;9.30;;;25.60;1.00;;;;;;5027969;28;20435;-62
2022/09/13 10:26:14;;;;;;;9.43;8.48;;;25.60;1.00;;;;;;5031245;28;20030;-63
2022/09/13 10:29:08;;;;;;;10.07;8.70;;;25.70;1.00;;;;;;5029961;28;20147;-62
2022/09/13 10:31:40;;;;;;;12.15;8.60;;;25.80;1.00;;;;;;5031239;28;20025;-63
2022/09/13 10:34:10;;;;;;;14.93;6.75;;;25.90;1.00;;;;;;5030423;28;20075;-61
2022/09/13 10:36:36;;;;;;;9.85;7.30;;;25.90;1.00;;;;;;5030904;28;20421;-62
2022/09/13 10:39:19;;;;;;;9.10;7.15;;;26.10;1.00;;;;;;5031011;28;20037;-62
2022/09/13 10:41:56;;;;;;;9.45;7.13;;;26.10;1.00;;;;;;5028985;28;20038;-63
2022/09/13 10:44:38;;;;;;;9.07;6.18;;;26.00;1.00;;;;;;5028540;28;20022;-62
2022/09/13 10:47:09;;;;;;;11.77;7.03;;;26.20;1.00;;;;;;5028064;28;20451;-62
2022/09/13 10:49:56;;;;;;;8.18;6.38;;;26.30;1.00;;;;;;5030316;28;20018;-62
2022/09/13 10:52:27;;;;;;;9.07;5.95;;;26.40;1.00;;;;;;5031709;28;20049;-62
2022/09/13 10:54:54;;;;;;;10.38;7.85;;;26.40;1.00;;;;;;5029362;28;20467;-62
2022/09/13 10:57:33;;;;;;;10.45;7.32;;;26.50;1.00;;;;;;5031070;28;20100;-62
2022/09/13 10:59:59;;;;;;;10.25;6.78;;;26.70;1.00;;;;;;5027729;28;20080;-61
2022/09/13 11:02:25;;;;;;;7.82;6.07;;;26.80;1.00;;;;;;5030010;28;20021;-63
2022/09/13 11:05:29;;;;;;;9.13;5.57;;;26.80;1.00;;;;;;5030262;28;20083;-62
2022/09/13 11:08:12;;;;;;;13.10;9.13;;;26.80;1.00;;;;;;5028352;28;20032;-62
2022/09/13 11:10:57;;;;;;;15.98;6.50;;;26.90;1.00;;;;;;5022211;28;20759;-63
2022/09/13 11:13:51;;;;;;;6.45;5.00;;;26.90;1.00;;;;;;5028132;28;20123;-63
2022/09/13 11:16:25;;;;;;;7.82;5.82;;;27.00;1.00;;;;;;5028032;28;20470;-63
2022/09/13 11:19:28;;;;;;;6.20;4.90;;;27.20;1.00;;;;;;5029305;28;20346;-63
2022/09/13 11:22:24;;;;;;;4.63;4.07;;;27.30;1.00;;;;;;5031680;28;20041;-63
2022/09/13 11:25:13;;;;;;;7.53;4.63;;;27.40;1.00;;;;;;5029494;28;20033;-63
2022/09/13 11:27:59;;;;;;;8.85;5.07;;;27.50;1.00;;;;;;5030613;28;20022;-63
2022/09/13 11:30:27;;;;;;;6.68;3.80;;;27.60;1.00;;;;;;5029887;28;20382;-63
2022/09/13 11:33:02;;;;;;;6.05;3.90;;;27.60;1.00;;;;;;5028089;28;20112;-62
2022/09/13 11:35:48;;;;;;;7.28;3.97;;;27.70;1.00;;;;;;5034116;28;20038;-63
2022/09/13 11:38:32;;;;;;;3.25;2.95;;;27.80;1.00;;;;;;5027841;28;20028;-63
2022/09/13 11:41:31;;;;;;;5.72;3.38;;;27.80;1.00;;;;;;5026489;28;20033;-63
2022/09/13 11:44:12;;;;;;;4.57;3.40;;;28.00;1.00;;;;;;5029000;28;20023;-63
2022/09/13 11:46:50;;;;;;;6.85;3.03;;;28.00;1.00;;;;;;5029234;28;20056;-63
2022/09/13 11:49:54;;;;;;;6.25;3.75;;;28.10;1.00;;;;;;5029133;28;20041;-63
2022/09/13 11:52:28;;;;;;;5.65;3.10;;;28.00;1.00;;;;;;5029136;28;20141;-62
2022/09/13 11:55:25;;;;;;;5.20;3.08;;;28.00;1.00;;;;;;5029393;28;20032;-63
2022/09/13 11:57:54;;;;;;;4.60;3.30;;;28.30;1.00;;;;;;5027599;28;20343;-63
2022/09/13 12:00:33;;;;;;;4.63;3.50;;;28.50;1.00;;;;;;5027860;28;20051;-62
2022/09/13 12:03:14;;;;;;;4.30;2.97;;;28.50;1.00;;;;;;5027374;28;20033;-63
2022/09/13 12:05:55;;;;;;;5.07;3.45;;;28.50;1.00;;;;;;5029245;28;20379;-63
2022/09/13 12:08:35;;;;;;;6.88;3.45;;;28.80;1.00;;;;;;5031798;28;20010;-63
2022/09/13 12:11:04;;;;;;;5.63;2.60;;;29.00;1.00;;;;;;5027644;28;20694;-62
2022/09/13 12:13:34;;;;;;;5.93;3.60;;;29.20;1.00;;;;;;5031827;28;20128;-63
2022/09/13 12:16:29;;;;;;;6.38;3.42;;;29.30;1.00;;;;;;5030955;28;20026;-62
2022/09/13 12:19:00;;;;;;;6.38;4.20;;;29.50;1.00;;;;;;5020720;28;20494;-64
2022/09/13 12:21:31;;;;;;;4.00;3.17;;;29.40;1.00;;;;;;5031543;28;20064;-63
2022/09/13 12:23:59;;;;;;;4.47;3.22;;;29.90;1.00;;;;;;5028631;28;20044;-62
2022/09/13 12:26:44;;;;;;;9.13;3.67;;;33.40;1.00;;;;;;5045620;28;20033;-63
2022/09/13 12:29:28;;;;;;;7.05;3.80;;;37.80;1.00;;;;;;5019491;28;20468;-63
2022/09/13 12:32:01;;;;;;;7.88;3.78;;;39.60;1.00;;;;;;5030813;28;20044;-63
2022/09/13 12:34:41;;;;;;;6.07;3.58;;;41.00;1.00;;;;;;5029551;28;20025;-63
2022/09/13 12:37:26;;;;;;;5.63;3.65;;;38.50;1.00;;;;;;5042768;28;20114;-63
2022/09/13 12:40:04;;;;;;;5.70;4.22;;;39.20;1.00;;;;;;5031503;28;20037;-63
2022/09/13 12:42:38;;;;;;;3.97;3.58;;;38.90;1.00;;;;;;5030768;28;20022;-63
2022/09/13 12:45:07;;;;;;;9.60;4.70;;;40.40;1.00;;;;;;5031780;28;20022;-61
2022/09/13 12:47:56;;;;;;;4.88;4.03;;;39.70;1.00;;;;;;5030729;28;20163;-63
2022/09/13 12:50:41;;;;;;;4.40;3.90;;;38.10;1.00;;;;;;5030423;28;20025;-63
2022/09/13 12:53:25;;;;;;;7.97;3.63;;;36.00;1.00;;;;;;5020315;28;20535;-62
2022/09/13 12:56:23;;;;;;;5.88;3.85;;;34.60;1.00;;;;;;5030449;28;20022;-62
2022/09/13 12:59:11;;;;;;;6.82;3.92;;;33.50;1.00;;;;;;5022783;28;20091;-62
2022/09/13 13:01:43;;;;;;;3.65;3.35;;;32.60;1.00;;;;;;5028586;28;20049;-62
2022/09/13 13:04:08;;;;;;;6.70;3.40;;;32.60;1.00;;;;;;5029863;28;20033;-62
2022/09/13 13:06:59;;;;;;;4.90;3.28;;;34.40;1.00;;;;;;5031816;28;20024;-62
2022/09/13 13:09:33;;;;;;;5.03;3.75;;;35.80;1.00;;;;;;5035064;28;20060;-62
2022/09/13 13:12:00;;;;;;;4.50;3.55;;;35.60;1.00;;;;;;5034474;28;20022;-62
2022/09/13 13:14:44;;;;;;;3.58;3.25;;;34.80;1.00;;;;;;5034900;28;20099;-62
2022/09/13 13:17:40;;;;;;;8.68;3.38;;;34.40;1.00;;;;;;5030329;28;20107;-63
2022/09/13 13:20:44;;;;;;;4.55;3.42;;;34.80;1.00;;;;;;5034131;28;20134;-61
2022/09/13 13:23:25;;;;;;;6.63;3.38;;;35.60;1.00;;;;;;5031941;28;20116;-62
2022/09/13 13:26:24;;;;;;;11.02;3.78;;;35.90;1.00;;;;;;5036420;28;20044;-62
2022/09/13 13:29:04;;;;;;;5.72;3.47;;;36.20;1.00;;;;;;5022690;28;20490;-62